BAW995 EDDB-EGLL
Flight info
| Callsign | BAW995 |
|---|---|
| Flight time | 1h 29m |
| Altitude | 38000 |
| Route | SUKIP3Q/06R SUKIP Y206 BUREL P203 HLZ L980 ROBEG DCT SONEB DCT ABNED L980 LOGAN LOGAN2H |
| Aircraft | A320/M-SDE3FGIJ1KRWXY/SB1 |
Departure
| Time | 2026-05-06 17:30 |
|---|---|
| Airport | Berlin Brandenburg Airport (EDDB) |
Arrival
| Time | 2026-05-06 19:00 |
|---|---|
| Airport | London Heathrow Airport (EGLL) |
| Time | Latitude | Longitude | Altitude | Speed | Heading |
|---|---|---|---|---|---|
| 2026-05-06 17:06 | 52.36060 | 13.50805 | 155 ft | 0 kts | 70° |
| 2026-05-06 17:14 | 52.36056 | 13.50787 | 155 ft | 3 kts | 68° |
| 2026-05-06 17:14 | 52.36048 | 13.50756 | 154 ft | 3 kts | 64° |
| 2026-05-06 17:15 | 52.36038 | 13.50728 | 154 ft | 3 kts | 57° |
| 2026-05-06 17:15 | 52.36027 | 13.50701 | 154 ft | 3 kts | 44° |
| 2026-05-06 17:15 | 52.36012 | 13.50682 | 154 ft | 3 kts | 13° |
| 2026-05-06 17:15 | 52.36000 | 13.50681 | 154 ft | 1 kts | 338° |
| 2026-05-06 17:19 | 52.36006 | 13.50677 | 154 ft | 2 kts | 338° |
| 2026-05-06 17:19 | 52.36029 | 13.50662 | 154 ft | 5 kts | 339° |
| 2026-05-06 17:20 | 52.36068 | 13.50638 | 154 ft | 7 kts | 339° |
| 2026-05-06 17:20 | 52.36103 | 13.50576 | 154 ft | 9 kts | 275° |
| 2026-05-06 17:20 | 52.36070 | 13.50493 | 154 ft | 9 kts | 213° |
| 2026-05-06 17:20 | 52.36006 | 13.50520 | 154 ft | 11 kts | 159° |
| 2026-05-06 17:21 | 52.35930 | 13.50567 | 154 ft | 13 kts | 159° |
| 2026-05-06 17:21 | 52.35840 | 13.50623 | 154 ft | 15 kts | 159° |
| 2026-05-06 17:21 | 52.35754 | 13.50679 | 154 ft | 13 kts | 158° |
| 2026-05-06 17:21 | 52.35680 | 13.50636 | 154 ft | 12 kts | 243° |
| 2026-05-06 17:22 | 52.35661 | 13.50560 | 154 ft | 7 kts | 248° |
| 2026-05-06 17:22 | 52.35647 | 13.50499 | 154 ft | 6 kts | 249° |
| 2026-05-06 17:22 | 52.35636 | 13.50454 | 154 ft | 3 kts | 248° |
| 2026-05-06 17:22 | 52.35629 | 13.50422 | 154 ft | 1 kts | 248° |
| 2026-05-06 17:23 | 52.35622 | 13.50397 | 154 ft | 3 kts | 248° |
| 2026-05-06 17:23 | 52.35609 | 13.50337 | 154 ft | 8 kts | 250° |
| 2026-05-06 17:23 | 52.35584 | 13.50233 | 154 ft | 12 kts | 249° |
| 2026-05-06 17:23 | 52.35551 | 13.50090 | 154 ft | 15 kts | 249° |
| 2026-05-06 17:24 | 52.35514 | 13.49937 | 154 ft | 13 kts | 249° |
| 2026-05-06 17:24 | 52.35477 | 13.49785 | 154 ft | 16 kts | 249° |
| 2026-05-06 17:24 | 52.35437 | 13.49617 | 154 ft | 13 kts | 249° |
| 2026-05-06 17:24 | 52.35400 | 13.49458 | 154 ft | 17 kts | 249° |
| 2026-05-06 17:25 | 52.35362 | 13.49298 | 154 ft | 16 kts | 249° |
| 2026-05-06 17:25 | 52.35326 | 13.49148 | 154 ft | 13 kts | 249° |
| 2026-05-06 17:25 | 52.35289 | 13.48992 | 154 ft | 16 kts | 249° |
| 2026-05-06 17:25 | 52.35244 | 13.48802 | 154 ft | 19 kts | 249° |
| 2026-05-06 17:26 | 52.35201 | 13.48623 | 154 ft | 16 kts | 249° |
| 2026-05-06 17:26 | 52.35159 | 13.48445 | 154 ft | 16 kts | 249° |
| 2026-05-06 17:26 | 52.35119 | 13.48277 | 154 ft | 13 kts | 249° |
| 2026-05-06 17:26 | 52.35082 | 13.48120 | 154 ft | 17 kts | 249° |
| 2026-05-06 17:27 | 52.35037 | 13.47928 | 154 ft | 19 kts | 249° |
| 2026-05-06 17:27 | 52.34993 | 13.47746 | 154 ft | 15 kts | 248° |
| 2026-05-06 17:27 | 52.34953 | 13.47577 | 154 ft | 17 kts | 249° |
| 2026-05-06 17:27 | 52.34910 | 13.47397 | 154 ft | 17 kts | 249° |
| 2026-05-06 17:28 | 52.34864 | 13.47204 | 154 ft | 18 kts | 249° |
| 2026-05-06 17:28 | 52.34817 | 13.47008 | 154 ft | 19 kts | 249° |
| 2026-05-06 17:28 | 52.34770 | 13.46811 | 154 ft | 17 kts | 246° |
| 2026-05-06 17:28 | 52.34683 | 13.46786 | 154 ft | 14 kts | 158° |
| 2026-05-06 17:29 | 52.34584 | 13.46850 | 154 ft | 10 kts | 159° |
| 2026-05-06 17:29 | 52.34566 | 13.46945 | 154 ft | 8 kts | 66° |
| 2026-05-06 17:29 | 52.34593 | 13.47058 | 154 ft | 29 kts | 69° |
| 2026-05-06 17:29 | 52.34756 | 13.47737 | 154 ft | 97 kts | 69° |
| 2026-05-06 17:30 | 52.35069 | 13.49044 | 158 ft | 148 kts | 66° |
| 2026-05-06 17:30 | 52.35427 | 13.50617 | 705 ft | 150 kts | 73° |
| 2026-05-06 17:30 | 52.35341 | 13.52324 | 1352 ft | 160 kts | 113° |
| 2026-05-06 17:30 | 52.34644 | 13.53910 | 1737 ft | 184 kts | 126° |
| 2026-05-06 17:31 | 52.33540 | 13.55217 | 2081 ft | 212 kts | 163° |
| 2026-05-06 17:31 | 52.32047 | 13.55099 | 2737 ft | 230 kts | 202° |
| 2026-05-06 17:31 | 52.30658 | 13.53566 | 3195 ft | 255 kts | 220° |
| 2026-05-06 17:31 | 52.29241 | 13.51672 | 3932 ft | 267 kts | 220° |
| 2026-05-06 17:32 | 52.27891 | 13.49620 | 5060 ft | 264 kts | 232° |
| 2026-05-06 17:32 | 52.26915 | 13.47107 | 6159 ft | 262 kts | 247° |
| 2026-05-06 17:32 | 52.26390 | 13.44320 | 7179 ft | 261 kts | 261° |
| 2026-05-06 17:32 | 52.26284 | 13.41350 | 8127 ft | 264 kts | 269° |
| 2026-05-06 17:33 | 52.26291 | 13.38329 | 9068 ft | 268 kts | 269° |
| 2026-05-06 17:33 | 52.26293 | 13.35271 | 9992 ft | 271 kts | 268° |
| 2026-05-06 17:33 | 52.26297 | 13.32177 | 10810 ft | 275 kts | 268° |
| 2026-05-06 17:33 | 52.26299 | 13.29037 | 11642 ft | 278 kts | 268° |
| 2026-05-06 17:34 | 52.26299 | 13.25855 | 12469 ft | 282 kts | 267° |
| 2026-05-06 17:34 | 52.26080 | 13.22666 | 13257 ft | 285 kts | 254° |
| 2026-05-06 17:34 | 52.25367 | 13.19596 | 13743 ft | 299 kts | 240° |
| 2026-05-06 17:34 | 52.24251 | 13.16579 | 13926 ft | 322 kts | 237° |
| 2026-05-06 17:35 | 52.23062 | 13.13438 | 14355 ft | 334 kts | 238° |
| 2026-05-06 17:35 | 52.21843 | 13.10179 | 15003 ft | 339 kts | 238° |
| 2026-05-06 17:35 | 52.20608 | 13.06874 | 15701 ft | 343 kts | 238° |
| 2026-05-06 17:36 | 52.18097 | 13.00161 | 17109 ft | 350 kts | 238° |
| 2026-05-06 17:36 | 52.16871 | 12.96713 | 17807 ft | 354 kts | 244° |
| 2026-05-06 17:36 | 52.16007 | 12.92950 | 18461 ft | 358 kts | 254° |
| 2026-05-06 17:36 | 52.15438 | 12.88978 | 19127 ft | 362 kts | 256° |
| 2026-05-06 17:37 | 52.14884 | 12.84963 | 19817 ft | 365 kts | 256° |
| 2026-05-06 17:37 | 52.14324 | 12.80915 | 20542 ft | 368 kts | 255° |
| 2026-05-06 17:37 | 52.13758 | 12.76895 | 21225 ft | 371 kts | 256° |
| 2026-05-06 17:37 | 52.13486 | 12.72700 | 21900 ft | 377 kts | 269° |
| 2026-05-06 17:38 | 52.13868 | 12.68444 | 22546 ft | 385 kts | 283° |
| 2026-05-06 17:38 | 52.14928 | 12.64394 | 23216 ft | 395 kts | 297° |
| 2026-05-06 17:38 | 52.16629 | 12.60817 | 23775 ft | 406 kts | 311° |
| 2026-05-06 17:38 | 52.18719 | 12.57687 | 24304 ft | 411 kts | 314° |
| 2026-05-06 17:39 | 52.20858 | 12.54569 | 24812 ft | 414 kts | 313° |
| 2026-05-06 17:39 | 52.22971 | 12.51355 | 25307 ft | 415 kts | 308° |
| 2026-05-06 17:39 | 52.24743 | 12.47736 | 25790 ft | 413 kts | 299° |
| 2026-05-06 17:39 | 52.26128 | 12.43652 | 26276 ft | 410 kts | 288° |
| 2026-05-06 17:40 | 52.27027 | 12.39252 | 26782 ft | 408 kts | 279° |
| 2026-05-06 17:40 | 52.27658 | 12.34728 | 27294 ft | 410 kts | 278° |
| 2026-05-06 17:40 | 52.28283 | 12.30177 | 27794 ft | 413 kts | 278° |
| 2026-05-06 17:40 | 52.28926 | 12.25582 | 28282 ft | 416 kts | 278° |
| 2026-05-06 17:41 | 52.29572 | 12.20952 | 28742 ft | 419 kts | 278° |
| 2026-05-06 17:41 | 52.30210 | 12.16297 | 29184 ft | 422 kts | 277° |
| 2026-05-06 17:41 | 52.30855 | 12.11601 | 29610 ft | 425 kts | 278° |
| 2026-05-06 17:41 | 52.31506 | 12.06931 | 30008 ft | 428 kts | 278° |
| 2026-05-06 17:42 | 52.32168 | 12.02172 | 30344 ft | 431 kts | 278° |
| 2026-05-06 17:42 | 52.32823 | 11.97385 | 30695 ft | 433 kts | 278° |
| 2026-05-06 17:42 | 52.33477 | 11.92581 | 31182 ft | 432 kts | 278° |
| 2026-05-06 17:42 | 52.34126 | 11.87798 | 31706 ft | 430 kts | 277° |
| 2026-05-06 17:43 | 52.34519 | 11.82990 | 32204 ft | 424 kts | 269° |
| 2026-05-06 17:43 | 52.34628 | 11.78175 | 32700 ft | 423 kts | 268° |
| 2026-05-06 17:43 | 52.34720 | 11.73380 | 33188 ft | 423 kts | 268° |
| 2026-05-06 17:43 | 52.34819 | 11.68580 | 33687 ft | 422 kts | 268° |
| 2026-05-06 17:44 | 52.34914 | 11.63851 | 34118 ft | 421 kts | 269° |
| 2026-05-06 17:44 | 52.35012 | 11.59060 | 34523 ft | 421 kts | 269° |
| 2026-05-06 17:44 | 52.35106 | 11.54263 | 34925 ft | 422 kts | 268° |
| 2026-05-06 17:44 | 52.35203 | 11.49478 | 35320 ft | 422 kts | 268° |
| 2026-05-06 17:45 | 52.35297 | 11.44678 | 35726 ft | 422 kts | 268° |
| 2026-05-06 17:45 | 52.35391 | 11.39873 | 36077 ft | 423 kts | 268° |
| 2026-05-06 17:45 | 52.35475 | 11.35057 | 36434 ft | 424 kts | 268° |
| 2026-05-06 17:45 | 52.35557 | 11.30236 | 36791 ft | 424 kts | 268° |
| 2026-05-06 17:46 | 52.35639 | 11.25476 | 37150 ft | 424 kts | 268° |
| 2026-05-06 17:46 | 52.35718 | 11.20660 | 37504 ft | 425 kts | 268° |
| 2026-05-06 17:46 | 52.35796 | 11.15815 | 37767 ft | 427 kts | 268° |
| 2026-05-06 17:46 | 52.35882 | 11.10959 | 37820 ft | 427 kts | 268° |
| 2026-05-06 17:47 | 52.36027 | 11.01265 | 37819 ft | 427 kts | 268° |
| 2026-05-06 17:47 | 52.36169 | 10.91560 | 37813 ft | 427 kts | 268° |
| 2026-05-06 17:48 | 52.36306 | 10.81915 | 37829 ft | 426 kts | 266° |
| 2026-05-06 17:48 | 52.35501 | 10.72381 | 37839 ft | 423 kts | 256° |
| 2026-05-06 17:49 | 52.34349 | 10.62942 | 37845 ft | 423 kts | 256° |
| 2026-05-06 17:49 | 52.33197 | 10.53498 | 37846 ft | 424 kts | 256° |
| 2026-05-06 17:50 | 52.32054 | 10.44115 | 37865 ft | 424 kts | 256° |
| 2026-05-06 17:50 | 52.30891 | 10.34676 | 37840 ft | 424 kts | 257° |
| 2026-05-06 17:51 | 52.29723 | 10.25226 | 37829 ft | 424 kts | 256° |
| 2026-05-06 17:51 | 52.28537 | 10.15776 | 37830 ft | 424 kts | 256° |
| 2026-05-06 17:52 | 52.27350 | 10.06342 | 37837 ft | 425 kts | 256° |
| 2026-05-06 17:52 | 52.26160 | 9.96959 | 37839 ft | 425 kts | 256° |
| 2026-05-06 17:53 | 52.25076 | 9.87483 | 37853 ft | 426 kts | 263° |
| 2026-05-06 17:53 | 52.24799 | 9.77803 | 37833 ft | 428 kts | 265° |
| 2026-05-06 17:54 | 52.24547 | 9.68092 | 37840 ft | 429 kts | 265° |
| 2026-05-06 17:54 | 52.24279 | 9.58374 | 37832 ft | 429 kts | 265° |
| 2026-05-06 17:55 | 52.24012 | 9.48715 | 37843 ft | 429 kts | 265° |
| 2026-05-06 17:55 | 52.23721 | 9.38990 | 37838 ft | 429 kts | 264° |
| 2026-05-06 17:56 | 52.23426 | 9.29265 | 37837 ft | 429 kts | 265° |
| 2026-05-06 17:56 | 52.22837 | 9.19611 | 37843 ft | 428 kts | 261° |
| 2026-05-06 17:57 | 52.22113 | 9.09973 | 37852 ft | 428 kts | 261° |
| 2026-05-06 17:57 | 52.21398 | 9.00393 | 37854 ft | 428 kts | 261° |
| 2026-05-06 17:58 | 52.20660 | 8.90774 | 37849 ft | 428 kts | 261° |
| 2026-05-06 17:58 | 52.20066 | 8.82768 | 37867 ft | 428 kts | 261° |
| 2026-05-06 17:59 | 52.19319 | 8.73129 | 37853 ft | 428 kts | 261° |
| 2026-05-06 17:59 | 52.18446 | 8.61940 | 37857 ft | 428 kts | 261° |
| 2026-05-06 18:00 | 52.17686 | 8.52321 | 37871 ft | 428 kts | 261° |
| 2026-05-06 18:00 | 52.17041 | 8.44330 | 37882 ft | 428 kts | 260° |
| 2026-05-06 18:01 | 52.16269 | 8.34702 | 37883 ft | 429 kts | 261° |
| 2026-05-06 18:01 | 52.15483 | 8.25079 | 37892 ft | 429 kts | 261° |
| 2026-05-06 18:02 | 52.14698 | 8.15435 | 37892 ft | 430 kts | 261° |
| 2026-05-06 18:02 | 52.13894 | 8.05794 | 37897 ft | 430 kts | 260° |
| 2026-05-06 18:03 | 52.13094 | 7.96228 | 37902 ft | 430 kts | 260° |
| 2026-05-06 18:03 | 52.12279 | 7.86588 | 37917 ft | 430 kts | 260° |
| 2026-05-06 18:04 | 52.11452 | 7.76939 | 37909 ft | 430 kts | 260° |
| 2026-05-06 18:04 | 52.10616 | 7.67304 | 37905 ft | 430 kts | 260° |
| 2026-05-06 18:05 | 52.09784 | 7.57657 | 37903 ft | 431 kts | 260° |
| 2026-05-06 18:05 | 52.08940 | 7.48093 | 37906 ft | 431 kts | 260° |
| 2026-05-06 18:06 | 52.08072 | 7.38452 | 37903 ft | 431 kts | 260° |
| 2026-05-06 18:06 | 52.07216 | 7.28812 | 37905 ft | 431 kts | 260° |
| 2026-05-06 18:07 | 52.06335 | 7.19180 | 37892 ft | 431 kts | 260° |
| 2026-05-06 18:07 | 52.05456 | 7.09613 | 37891 ft | 432 kts | 260° |
| 2026-05-06 18:08 | 52.04563 | 6.99962 | 37892 ft | 432 kts | 260° |
| 2026-05-06 18:08 | 52.03675 | 6.90312 | 37894 ft | 432 kts | 259° |
| 2026-05-06 18:09 | 52.02764 | 6.80667 | 37910 ft | 432 kts | 260° |
| 2026-05-06 18:09 | 52.02175 | 6.71026 | 37908 ft | 434 kts | 265° |
| 2026-05-06 18:10 | 52.01848 | 6.61250 | 37915 ft | 434 kts | 265° |
| 2026-05-06 18:10 | 52.01512 | 6.51473 | 37914 ft | 434 kts | 265° |
| 2026-05-06 18:11 | 52.01153 | 6.41698 | 37920 ft | 434 kts | 265° |
| 2026-05-06 18:11 | 52.00800 | 6.31921 | 37929 ft | 434 kts | 265° |
| 2026-05-06 18:12 | 52.00436 | 6.22205 | 37933 ft | 434 kts | 265° |
| 2026-05-06 18:12 | 52.00066 | 6.12421 | 37931 ft | 434 kts | 265° |
| 2026-05-06 18:13 | 51.99681 | 6.02640 | 37930 ft | 434 kts | 265° |
| 2026-05-06 18:13 | 51.99292 | 5.92862 | 37931 ft | 434 kts | 265° |
| 2026-05-06 18:14 | 51.98891 | 5.83093 | 37937 ft | 434 kts | 265° |
| 2026-05-06 18:14 | 51.98493 | 5.73380 | 37933 ft | 434 kts | 265° |
| 2026-05-06 18:15 | 51.98073 | 5.63603 | 37929 ft | 434 kts | 265° |
| 2026-05-06 18:15 | 51.97655 | 5.53835 | 37928 ft | 434 kts | 265° |
| 2026-05-06 18:16 | 51.97229 | 5.44067 | 37934 ft | 434 kts | 264° |
| 2026-05-06 18:16 | 51.96790 | 5.34313 | 37943 ft | 434 kts | 265° |
| 2026-05-06 18:17 | 51.96347 | 5.24617 | 37944 ft | 434 kts | 264° |
| 2026-05-06 18:17 | 51.95886 | 5.14866 | 37944 ft | 434 kts | 265° |
| 2026-05-06 18:18 | 51.95426 | 5.05119 | 37939 ft | 434 kts | 264° |
| 2026-05-06 18:18 | 51.94945 | 4.95377 | 37934 ft | 433 kts | 264° |
| 2026-05-06 18:19 | 51.94475 | 4.85703 | 37938 ft | 433 kts | 264° |
| 2026-05-06 18:19 | 51.93986 | 4.75960 | 37937 ft | 434 kts | 264° |
| 2026-05-06 18:20 | 51.93496 | 4.66218 | 37927 ft | 434 kts | 264° |
| 2026-05-06 18:20 | 51.92989 | 4.56480 | 37930 ft | 434 kts | 264° |
| 2026-05-06 18:21 | 51.92483 | 4.46798 | 37926 ft | 434 kts | 264° |
| 2026-05-06 18:21 | 51.91972 | 4.37051 | 37928 ft | 434 kts | 264° |
| 2026-05-06 18:22 | 51.91447 | 4.27307 | 37928 ft | 434 kts | 264° |
| 2026-05-06 18:22 | 51.90909 | 4.17565 | 37934 ft | 434 kts | 264° |
| 2026-05-06 18:23 | 51.90368 | 4.07890 | 37932 ft | 434 kts | 264° |
| 2026-05-06 18:23 | 51.89810 | 3.98089 | 37937 ft | 434 kts | 264° |
| 2026-05-06 18:24 | 51.89252 | 3.88420 | 37952 ft | 434 kts | 264° |
| 2026-05-06 18:24 | 51.88713 | 3.79142 | 37957 ft | 433 kts | 264° |
| 2026-05-06 18:25 | 51.88202 | 3.70541 | 37955 ft | 432 kts | 264° |
| 2026-05-06 18:25 | 51.87629 | 3.60870 | 37957 ft | 432 kts | 264° |
| 2026-05-06 18:26 | 51.87051 | 3.51272 | 37960 ft | 431 kts | 264° |
| 2026-05-06 18:26 | 51.86453 | 3.41624 | 37960 ft | 431 kts | 263° |
| 2026-05-06 18:27 | 51.85853 | 3.31993 | 37973 ft | 430 kts | 263° |
| 2026-05-06 18:27 | 51.85236 | 3.22370 | 37960 ft | 430 kts | 263° |
| 2026-05-06 18:28 | 51.84635 | 3.12761 | 37688 ft | 427 kts | 263° |
| 2026-05-06 18:28 | 51.84337 | 3.08046 | 37432 ft | 427 kts | 263° |
| 2026-05-06 18:28 | 51.84021 | 3.03263 | 37159 ft | 428 kts | 263° |
| 2026-05-06 18:29 | 51.83708 | 2.98482 | 36888 ft | 427 kts | 263° |
| 2026-05-06 18:29 | 51.83395 | 2.93719 | 36625 ft | 426 kts | 263° |
| 2026-05-06 18:29 | 51.83080 | 2.88953 | 36374 ft | 427 kts | 264° |
| 2026-05-06 18:29 | 51.82761 | 2.84173 | 36118 ft | 428 kts | 263° |
| 2026-05-06 18:30 | 51.82438 | 2.79386 | 35867 ft | 428 kts | 263° |
| 2026-05-06 18:30 | 51.82113 | 2.74606 | 35617 ft | 428 kts | 264° |
| 2026-05-06 18:30 | 51.81791 | 2.69826 | 35375 ft | 428 kts | 264° |
| 2026-05-06 18:30 | 51.81464 | 2.65046 | 35131 ft | 429 kts | 264° |
| 2026-05-06 18:31 | 51.81141 | 2.60319 | 34894 ft | 429 kts | 264° |
| 2026-05-06 18:31 | 51.80806 | 2.55535 | 34652 ft | 428 kts | 264° |
| 2026-05-06 18:31 | 51.80470 | 2.50756 | 34418 ft | 428 kts | 264° |
| 2026-05-06 18:31 | 51.80135 | 2.45974 | 34182 ft | 429 kts | 264° |
| 2026-05-06 18:32 | 51.79803 | 2.41184 | 33946 ft | 429 kts | 264° |
| 2026-05-06 18:32 | 51.79470 | 2.36403 | 33434 ft | 428 kts | 263° |
| 2026-05-06 18:32 | 51.79126 | 2.31623 | 32694 ft | 428 kts | 263° |
| 2026-05-06 18:32 | 51.78783 | 2.26885 | 32237 ft | 422 kts | 263° |
| 2026-05-06 18:33 | 51.78450 | 2.22264 | 31720 ft | 418 kts | 263° |
| 2026-05-06 18:33 | 51.78173 | 2.17616 | 31233 ft | 414 kts | 265° |
| 2026-05-06 18:33 | 51.77923 | 2.13009 | 30738 ft | 410 kts | 265° |
| 2026-05-06 18:33 | 51.77654 | 2.08448 | 30266 ft | 406 kts | 264° |
| 2026-05-06 18:34 | 51.77383 | 2.03932 | 29738 ft | 403 kts | 264° |
| 2026-05-06 18:34 | 51.77120 | 1.99467 | 29257 ft | 398 kts | 264° |
| 2026-05-06 18:34 | 51.76856 | 1.95050 | 28785 ft | 393 kts | 264° |
| 2026-05-06 18:34 | 51.76587 | 1.90681 | 28303 ft | 389 kts | 264° |
| 2026-05-06 18:35 | 51.76316 | 1.86349 | 27834 ft | 386 kts | 264° |
| 2026-05-06 18:35 | 51.76051 | 1.82044 | 27346 ft | 384 kts | 264° |
| 2026-05-06 18:35 | 51.75789 | 1.77761 | 26867 ft | 383 kts | 264° |
| 2026-05-06 18:35 | 51.75535 | 1.73553 | 26396 ft | 381 kts | 264° |
| 2026-05-06 18:36 | 51.75265 | 1.69304 | 25912 ft | 380 kts | 264° |
| 2026-05-06 18:36 | 51.75000 | 1.65065 | 25426 ft | 379 kts | 264° |
| 2026-05-06 18:36 | 51.74735 | 1.60833 | 24940 ft | 379 kts | 264° |
| 2026-05-06 18:36 | 51.74465 | 1.56596 | 24376 ft | 380 kts | 264° |
| 2026-05-06 18:37 | 51.74192 | 1.52346 | 23812 ft | 382 kts | 264° |
| 2026-05-06 18:37 | 51.73918 | 1.48082 | 23173 ft | 383 kts | 264° |
| 2026-05-06 18:37 | 51.73647 | 1.43817 | 22598 ft | 381 kts | 264° |
| 2026-05-06 18:37 | 51.73374 | 1.39584 | 22032 ft | 380 kts | 264° |
| 2026-05-06 18:38 | 51.73098 | 1.35356 | 21461 ft | 378 kts | 264° |
| 2026-05-06 18:38 | 51.72823 | 1.31140 | 20895 ft | 377 kts | 264° |
| 2026-05-06 18:38 | 51.72549 | 1.26993 | 20337 ft | 376 kts | 264° |
| 2026-05-06 18:38 | 51.72268 | 1.22807 | 19775 ft | 375 kts | 264° |
| 2026-05-06 18:39 | 51.71986 | 1.18637 | 19214 ft | 373 kts | 264° |
| 2026-05-06 18:39 | 51.71710 | 1.14484 | 18668 ft | 371 kts | 264° |
| 2026-05-06 18:39 | 51.71434 | 1.10359 | 18121 ft | 369 kts | 264° |
| 2026-05-06 18:40 | 51.70875 | 1.02211 | 16950 ft | 362 kts | 264° |
| 2026-05-06 18:40 | 51.70599 | 0.98200 | 16413 ft | 357 kts | 264° |
| 2026-05-06 18:40 | 51.70334 | 0.94245 | 15886 ft | 353 kts | 264° |
| 2026-05-06 18:40 | 51.70068 | 0.90390 | 15474 ft | 347 kts | 264° |
| 2026-05-06 18:41 | 51.69802 | 0.86557 | 15048 ft | 341 kts | 265° |
| 2026-05-06 18:41 | 51.69541 | 0.82785 | 14627 ft | 336 kts | 265° |
| 2026-05-06 18:41 | 51.69277 | 0.79063 | 14208 ft | 332 kts | 264° |
| 2026-05-06 18:41 | 51.69011 | 0.75392 | 13799 ft | 329 kts | 264° |
| 2026-05-06 18:42 | 51.68753 | 0.71731 | 13355 ft | 327 kts | 265° |
| 2026-05-06 18:42 | 51.68494 | 0.68107 | 12951 ft | 325 kts | 264° |
| 2026-05-06 18:42 | 51.68238 | 0.64503 | 12551 ft | 323 kts | 265° |
| 2026-05-06 18:42 | 51.67987 | 0.60917 | 12150 ft | 321 kts | 264° |
| 2026-05-06 18:43 | 51.67729 | 0.57403 | 11756 ft | 319 kts | 264° |
| 2026-05-06 18:43 | 51.67472 | 0.53865 | 11360 ft | 316 kts | 264° |
| 2026-05-06 18:43 | 51.67217 | 0.50368 | 10965 ft | 312 kts | 264° |
| 2026-05-06 18:43 | 51.66961 | 0.46914 | 10617 ft | 308 kts | 264° |
| 2026-05-06 18:44 | 51.66715 | 0.43553 | 10477 ft | 297 kts | 265° |
| 2026-05-06 18:44 | 51.66478 | 0.40307 | 10279 ft | 288 kts | 265° |
| 2026-05-06 18:44 | 51.66244 | 0.37107 | 9938 ft | 287 kts | 265° |
| 2026-05-06 18:44 | 51.66012 | 0.33941 | 9589 ft | 284 kts | 265° |
| 2026-05-06 18:45 | 51.65781 | 0.30790 | 9191 ft | 283 kts | 264° |
| 2026-05-06 18:45 | 51.65544 | 0.27647 | 8784 ft | 283 kts | 264° |
| 2026-05-06 18:45 | 51.65305 | 0.24548 | 8380 ft | 283 kts | 263° |
| 2026-05-06 18:45 | 51.65066 | 0.21414 | 8071 ft | 280 kts | 263° |
| 2026-05-06 18:46 | 51.64836 | 0.18330 | 8006 ft | 277 kts | 263° |
| 2026-05-06 18:46 | 51.64611 | 0.15250 | 8006 ft | 277 kts | 265° |
| 2026-05-06 18:46 | 51.64463 | 0.12154 | 8007 ft | 277 kts | 266° |
| 2026-05-06 18:46 | 51.64322 | 0.09059 | 8001 ft | 277 kts | 266° |
| 2026-05-06 18:47 | 51.64183 | 0.05961 | 7999 ft | 277 kts | 266° |
| 2026-05-06 18:47 | 51.64044 | 0.02866 | 8005 ft | 277 kts | 266° |
| 2026-05-06 18:47 | 51.63907 | -0.00226 | 8038 ft | 278 kts | 266° |
| 2026-05-06 18:47 | 51.63764 | -0.03324 | 8032 ft | 277 kts | 266° |
| 2026-05-06 18:48 | 51.63585 | -0.06357 | 8048 ft | 275 kts | 266° |
| 2026-05-06 18:48 | 51.63403 | -0.09426 | 8041 ft | 275 kts | 266° |
| 2026-05-06 18:48 | 51.63210 | -0.12488 | 8055 ft | 275 kts | 266° |
| 2026-05-06 18:48 | 51.63015 | -0.15548 | 8047 ft | 275 kts | 266° |
| 2026-05-06 18:49 | 51.62829 | -0.18615 | 8059 ft | 275 kts | 266° |
| 2026-05-06 18:49 | 51.62640 | -0.21679 | 8055 ft | 275 kts | 266° |
| 2026-05-06 18:49 | 51.62459 | -0.24752 | 8055 ft | 276 kts | 266° |
| 2026-05-06 18:49 | 51.62285 | -0.27824 | 8060 ft | 276 kts | 266° |
| 2026-05-06 18:50 | 51.62098 | -0.30891 | 8055 ft | 275 kts | 266° |
| 2026-05-06 18:50 | 51.61918 | -0.33917 | 8000 ft | 275 kts | 266° |
| 2026-05-06 18:50 | 51.61722 | -0.36966 | 7908 ft | 273 kts | 266° |
| 2026-05-06 18:50 | 51.61524 | -0.40002 | 7563 ft | 272 kts | 266° |
| 2026-05-06 18:51 | 51.61342 | -0.43029 | 7209 ft | 271 kts | 266° |
| 2026-05-06 18:51 | 51.61156 | -0.46030 | 7025 ft | 268 kts | 266° |
| 2026-05-06 18:51 | 51.60988 | -0.48951 | 6997 ft | 256 kts | 266° |
| 2026-05-06 18:51 | 51.60820 | -0.51726 | 6997 ft | 243 kts | 266° |
| 2026-05-06 18:52 | 51.60653 | -0.54402 | 6994 ft | 240 kts | 265° |
| 2026-05-06 18:52 | 51.60489 | -0.57073 | 7004 ft | 240 kts | 266° |
| 2026-05-06 18:52 | 51.60324 | -0.59707 | 7004 ft | 239 kts | 266° |
| 2026-05-06 18:52 | 51.60149 | -0.62366 | 7002 ft | 239 kts | 266° |
| 2026-05-06 18:53 | 51.59856 | -0.64999 | 7004 ft | 241 kts | 250° |
| 2026-05-06 18:53 | 51.59159 | -0.67455 | 6791 ft | 241 kts | 246° |
| 2026-05-06 18:53 | 51.58431 | -0.69875 | 6505 ft | 240 kts | 246° |
| 2026-05-06 18:53 | 51.57717 | -0.72294 | 6211 ft | 239 kts | 246° |
| 2026-05-06 18:54 | 51.57005 | -0.74700 | 5901 ft | 238 kts | 246° |
| 2026-05-06 18:54 | 51.56299 | -0.77036 | 5599 ft | 231 kts | 246° |
| 2026-05-06 18:54 | 51.55512 | -0.79193 | 5315 ft | 220 kts | 227° |
| 2026-05-06 18:54 | 51.54231 | -0.80392 | 5031 ft | 213 kts | 191° |
| 2026-05-06 18:55 | 51.52781 | -0.80537 | 4723 ft | 206 kts | 181° |
| 2026-05-06 18:55 | 51.51378 | -0.80304 | 4372 ft | 203 kts | 155° |
| 2026-05-06 18:55 | 51.50232 | -0.79010 | 4045 ft | 203 kts | 136° |
| 2026-05-06 18:55 | 51.49178 | -0.77481 | 3700 ft | 206 kts | 136° |
| 2026-05-06 18:56 | 51.48261 | -0.75745 | 3450 ft | 203 kts | 116° |
| 2026-05-06 18:56 | 51.47771 | -0.73665 | 3215 ft | 198 kts | 98° |
| 2026-05-06 18:56 | 51.47636 | -0.71524 | 2973 ft | 194 kts | 87° |
| 2026-05-06 18:56 | 51.47645 | -0.69386 | 2749 ft | 190 kts | 86° |
| 2026-05-06 18:57 | 51.47657 | -0.67274 | 2456 ft | 187 kts | 86° |
| 2026-05-06 18:57 | 51.47667 | -0.65242 | 2215 ft | 178 kts | 86° |
| 2026-05-06 18:57 | 51.47677 | -0.63293 | 1981 ft | 174 kts | 86° |
| 2026-05-06 18:57 | 51.47688 | -0.61361 | 1746 ft | 172 kts | 86° |
| 2026-05-06 18:58 | 51.47698 | -0.59456 | 1505 ft | 170 kts | 87° |
| 2026-05-06 18:58 | 51.47706 | -0.57618 | 1270 ft | 157 kts | 86° |
| 2026-05-06 18:58 | 51.47712 | -0.55971 | 1072 ft | 141 kts | 85° |
| 2026-05-06 18:58 | 51.47719 | -0.54440 | 862 ft | 135 kts | 85° |
| 2026-05-06 18:59 | 51.47727 | -0.52976 | 683 ft | 132 kts | 85° |
| 2026-05-06 18:59 | 51.47734 | -0.51511 | 498 ft | 131 kts | 86° |
| 2026-05-06 18:59 | 51.47740 | -0.50060 | 306 ft | 129 kts | 86° |
| 2026-05-06 18:59 | 51.47747 | -0.48627 | 146 ft | 128 kts | 86° |
| 2026-05-06 19:00 | 51.47757 | -0.47267 | 85 ft | 104 kts | 91° |
| 2026-05-06 19:00 | 51.47758 | -0.46575 | 89 ft | 32 kts | 91° |
| 2026-05-06 19:00 | 51.47758 | -0.46247 | 90 ft | 20 kts | 98° |
| 2026-05-06 19:00 | 51.47663 | -0.46098 | 90 ft | 12 kts | 144° |
| 2026-05-06 19:01 | 51.47596 | -0.46140 | 89 ft | 15 kts | 265° |
| 2026-05-06 19:01 | 51.47593 | -0.46329 | 89 ft | 18 kts | 268° |
| 2026-05-06 19:01 | 51.47592 | -0.46549 | 86 ft | 20 kts | 270° |
| 2026-05-06 19:01 | 51.47592 | -0.46724 | 86 ft | 16 kts | 269° |
| 2026-05-06 19:02 | 51.47583 | -0.46925 | 90 ft | 19 kts | 270° |
| 2026-05-06 19:02 | 51.47582 | -0.47136 | 90 ft | 21 kts | 269° |
| 2026-05-06 19:02 | 51.47581 | -0.47333 | 90 ft | 18 kts | 269° |
| 2026-05-06 19:02 | 51.47581 | -0.47553 | 90 ft | 20 kts | 270° |
| 2026-05-06 19:03 | 51.47580 | -0.47768 | 88 ft | 19 kts | 270° |
| 2026-05-06 19:03 | 51.47580 | -0.47983 | 87 ft | 20 kts | 269° |
| 2026-05-06 19:03 | 51.47579 | -0.48198 | 89 ft | 19 kts | 270° |
| 2026-05-06 19:03 | 51.47577 | -0.48397 | 86 ft | 14 kts | 268° |
| 2026-05-06 19:04 | 51.47504 | -0.48477 | 86 ft | 16 kts | 178° |
| 2026-05-06 19:04 | 51.47384 | -0.48475 | 86 ft | 18 kts | 180° |
| 2026-05-06 19:04 | 51.47259 | -0.48473 | 86 ft | 17 kts | 180° |
| 2026-05-06 19:04 | 51.47131 | -0.48473 | 86 ft | 19 kts | 180° |
| 2026-05-06 19:05 | 51.47004 | -0.48471 | 87 ft | 19 kts | 180° |
| 2026-05-06 19:05 | 51.46919 | -0.48469 | 90 ft | 11 kts | 179° |
| 2026-05-06 19:05 | 51.46878 | -0.48553 | 86 ft | 12 kts | 269° |
| 2026-05-06 19:05 | 51.46877 | -0.48701 | 86 ft | 14 kts | 270° |
| 2026-05-06 19:06 | 51.46902 | -0.48786 | 88 ft | 9 kts | 348° |
| 2026-05-06 19:06 | 51.46928 | -0.48787 | 88 ft | 2 kts | 358° |
| 2026-05-06 19:06 | 51.46930 | -0.48787 | 88 ft | 0 kts | 359° |